Greer, Arizona
Current Conditions -  °F | °C
As of 2:15 PM on Sunday 23 Nov 2014 (Local Time) from KJTC Reporting Station
Clear Clear  
Wind Chill: 29°   Ceiling: Unl
Heat Index: 41°   Visibility: 10mi
Dew Point: -2°   Wind: 32mph
Humidity: 16%   Direction: 310°NW
Pressure: 30.08"   Gusts: 41mph
Location:  34.01°N, 109.46°W
Report Text: KJTC 232115Z AUTO 31028G36KT 10SM CLR 05/M19 A3008 RMK AO2
Loading
Personal Weather Stations






























Interactive Weather Map New forecast layout! Learn more

10-Day Weather Forecast

Advertisements
Track Severe Weather on mobile